Impacts METAR Board
IDs:

KEWR - Newark Intl, NJ, US

Updated at: 2100 UTC 15 Jun 2019
Potential Impact None Slight Moderate High
Time 15/09Z 15/10Z 15/11Z 15/12Z 15/13Z 15/14Z 15/15Z 15/16Z 15/17Z 15/18Z 15/19Z 15/20Z 15/21Z
Temp56 60 60 65 71 75 77 81 81 82 82 82 81
Dewpt46 49 49 48 49 51 54 50 48 50 48 50 46
Altim30.12 30.12 30.14 30.14 30.13 30.11 30.10 30.08 30.05 30.02 30.00 29.99 29.97
VIS10 10 10 10 10 10 10 10 10 10 10 10 10
CIG-- 250 250 250 250 250 250 250 250 250 250 250 110
CoverSCTBKNBKNBKNBKNBKNBKNBKNBKNBKNBKNBKNBKN
FltCatVFRVFRVFRVFRVFRVFRVFRVFRVFRVFRVFRVFRVFR
WX--------------------------
WDir2100220220250180200220220210230200230
WSpd4 0 5 4 3 9 10 14 13 15 16 12 16
WGst-- -- -- -- -- -- -- -- 24 22 34 23 23
Raw hourly METARs
KEWR 150851Z 21004KT 10SM SCT250 13/08 A3012 RMK AO2 SLP197 T01330078 51005
KEWR 150951Z 00000KT 10SM SCT180 BKN250 16/09 A3012 RMK AO2 SLP199 T01560094
KEWR 151051Z 22005KT 10SM FEW180 BKN250 16/09 A3014 RMK AO2 SLP204 T01560094
KEWR 151151Z 22004KT 10SM FEW180 BKN250 18/09 A3014 RMK AO2 SLP205 T01830089 10183 20133 51008
KEWR 151251Z 25003KT 10SM FEW180 BKN250 22/09 A3013 RMK AO2 SLP202 T02170094
KEWR 151351Z 18009KT 10SM SCT200 BKN250 24/11 A3011 RMK AO2 SLP196 T02390106
KEWR 151451Z 20010KT 10SM FEW140 SCT200 BKN250 25/12 A3010 RMK AO2 SLP192 T02500122 58014
KEWR 151551Z 22014KT 10SM FEW140 SCT180 BKN250 27/10 A3008 RMK AO2 SLP184 T02720100
KEWR 151658Z 22013G24KT 10SM FEW130 SCT180 BKN250 27/09 A3005 RMK AO2 T02720089
KEWR 151751Z 21015G22KT 10SM FEW050 FEW130 SCT180 BKN250 28/10 A3002 RMK AO2 SLP166 T02780100 10278 20183 58026
KEWR 151851Z 23016G34KT 10SM FEW050 FEW130 SCT180 BKN250 28/09 A3000 RMK AO2 PK WND 20034/1843 SLP158 T02780089
KEWR 151951Z 20012G23KT 10SM FEW050 FEW130 SCT180 BKN250 28/10 A2999 RMK AO2 PK WND 19026/1929 SLP154 T02780100
KEWR 152051Z 23016G23KT 10SM FEW050 BKN110 BKN180 BKN250 27/08 A2997 RMK AO2 PK WND 24026/2015 SLP149 T02720078 56016



Page loaded:  21:07 UTC  |   02:07 PM Pacific  |   03:07 PM Mountain  |   04:07 PM Central  |   05:07 PM Eastern

 

ADVISORIES

FORECASTS

FORECASTS

OBSERVATIONS

USER TOOLS

ABOUT US